Time;durP1;ratioP1;P1;durP2;ratioP2;P2;SDS_P1;SDS_P2;PMS_P1;PMS_P2;Temp;Humidity;BMP_temperature;BMP_pressure;BME280_temperature;BME280_humidity;BME280_pressure;Samples;Min_cycle;Max_cycle;Signal;HPM_P1;HPM_P2
2021/04/08 00:01:11;;;;;;;9.35;2.88;;;3.00;93.10;;;;;;4936198;29;20217;-67
2021/04/08 00:03:36;;;;;;;9.63;2.15;;;2.90;93.10;;;;;;4936032;28;20032;-65
2021/04/08 00:06:02;;;;;;;8.98;2.85;;;2.90;93.20;;;;;;4936118;29;20024;-66
2021/04/08 00:08:28;;;;;;;10.55;3.92;;;2.80;93.30;;;;;;4936555;29;20024;-67
2021/04/08 00:10:54;;;;;;;49.83;23.13;;;2.80;93.40;;;;;;4935576;29;20107;-67
2021/04/08 00:13:19;;;;;;;15.60;5.10;;;2.70;93.40;;;;;;4951366;29;20118;-66
2021/04/08 00:15:45;;;;;;;18.90;6.97;;;2.70;93.50;;;;;;4950612;29;20023;-66
2021/04/08 00:18:11;;;;;;;157.80;71.97;;;2.70;93.50;;;;;;4935746;29;20031;-66
2021/04/08 00:20:36;;;;;;;41.83;18.70;;;2.70;93.60;;;;;;4936265;29;20484;-65
2021/04/08 00:23:02;;;;;;;21.67;10.50;;;2.60;93.60;;;;;;4935945;29;20030;-66
2021/04/08 00:25:27;;;;;;;14.02;5.05;;;2.70;93.70;;;;;;4935499;29;20062;-65
2021/04/08 00:27:53;;;;;;;14.63;5.97;;;2.60;93.70;;;;;;4950716;29;20460;-65
2021/04/08 00:30:19;;;;;;;20.02;4.53;;;2.60;93.70;;;;;;4936139;29;20078;-65
2021/04/08 00:32:45;;;;;;;8.98;3.40;;;2.60;93.80;;;;;;4934901;29;20086;-65
2021/04/08 00:35:11;;;;;;;28.90;16.85;;;2.50;93.80;;;;;;4936057;29;20024;-65
2021/04/08 00:37:36;;;;;;;18.85;7.22;;;2.50;93.90;;;;;;4950671;29;20099;-66
2021/04/08 00:40:08;;;;;;;12.82;4.05;;;2.50;94.00;;;;;;4934819;29;20473;-66
2021/04/08 00:42:33;;;;;;;11.35;5.63;;;2.40;94.00;;;;;;4950533;29;20393;-65
2021/04/08 00:44:59;;;;;;;16.50;4.50;;;2.40;94.10;;;;;;4935201;29;20028;-66
2021/04/08 00:47:24;;;;;;;19.58;5.55;;;2.40;94.10;;;;;;4935301;29;20043;-65
2021/04/08 00:49:50;;;;;;;22.35;10.32;;;2.30;94.10;;;;;;4935339;29;20024;-66
2021/04/08 00:52:15;;;;;;;16.40;4.68;;;2.30;94.10;;;;;;4935286;29;20043;-66
2021/04/08 00:54:41;;;;;;;9.45;3.53;;;2.30;94.10;;;;;;4934803;29;20032;-66
2021/04/08 00:57:07;;;;;;;11.73;4.13;;;2.30;94.20;;;;;;4935377;29;20027;-65
2021/04/08 00:59:33;;;;;;;9.43;3.10;;;2.30;94.30;;;;;;4935744;29;20384;-66
2021/04/08 01:01:58;;;;;;;29.00;10.52;;;2.30;94.30;;;;;;4934648;29;20035;-66
2021/04/08 01:04:24;;;;;;;19.17;6.15;;;2.20;94.40;;;;;;4950391;29;20020;-67
2021/04/08 01:06:51;;;;;;;13.35;4.90;;;2.20;94.50;;;;;;4934476;29;20023;-66
2021/04/08 01:09:16;;;;;;;12.23;3.97;;;2.20;94.50;;;;;;4950331;29;20024;-65
2021/04/08 01:11:42;;;;;;;12.35;4.53;;;2.20;94.50;;;;;;4935532;29;20049;-66
2021/04/08 01:14:08;;;;;;;15.20;6.10;;;2.20;94.60;;;;;;4949382;29;20102;-66
2021/04/08 01:16:44;;;;;;;11.27;3.60;;;2.20;94.60;;;;;;4935560;28;20036;-66
2021/04/08 01:19:43;;;;;;;15.13;4.25;;;2.20;94.70;;;;;;4935440;29;20504;-67
2021/04/08 01:22:46;;;;;;;16.75;7.05;;;2.10;94.70;;;;;;4934913;29;20043;-66
2021/04/08 01:25:36;;;;;;;14.55;6.90;;;2.10;94.70;;;;;;4935349;29;20034;-66
2021/04/08 01:28:16;;;;;;;9.95;4.40;;;2.10;94.70;;;;;;4934322;29;20074;-66
2021/04/08 01:30:44;;;;;;;8.32;3.78;;;2.10;94.80;;;;;;4935392;29;20024;-66
2021/04/08 01:33:16;;;;;;;12.68;5.63;;;2.10;94.90;;;;;;4950169;29;20548;-66
2021/04/08 01:35:44;;;;;;;11.98;4.80;;;2.00;95.00;;;;;;4934649;29;20028;-66
2021/04/08 01:38:30;;;;;;;10.98;4.68;;;2.00;95.00;;;;;;4935309;29;20035;-66
2021/04/08 01:40:56;;;;;;;15.27;4.25;;;2.00;95.10;;;;;;4934958;29;20062;-66
2021/04/08 01:43:27;;;;;;;8.63;3.75;;;2.00;95.10;;;;;;4934687;29;20083;-66
2021/04/08 01:45:56;;;;;;;47.95;31.02;;;2.00;95.20;;;;;;4949357;29;20036;-66
2021/04/08 01:48:21;;;;;;;12.13;6.22;;;2.00;95.20;;;;;;4935265;29;20037;-66
2021/04/08 01:50:49;;;;;;;11.73;4.85;;;2.00;95.30;;;;;;4933997;29;20461;-66
2021/04/08 01:53:17;;;;;;;9.15;4.43;;;2.10;95.30;;;;;;4935110;29;20611;-66
2021/04/08 01:55:44;;;;;;;12.43;4.50;;;2.20;95.30;;;;;;4935109;29;20048;-67
2021/04/08 01:58:11;;;;;;;11.07;4.68;;;2.30;95.30;;;;;;4934474;29;20027;-66
2021/04/08 02:00:38;;;;;;;10.23;4.30;;;2.40;95.20;;;;;;4935163;29;20035;-66
2021/04/08 02:03:05;;;;;;;16.42;4.13;;;2.50;95.10;;;;;;4934099;29;20036;-65
2021/04/08 02:05:32;;;;;;;7.03;2.90;;;2.60;95.00;;;;;;4938182;29;20114;-66
2021/04/08 02:07:58;;;;;;;12.45;3.63;;;2.70;94.90;;;;;;4938375;29;20038;-66
2021/04/08 02:10:26;;;;;;;11.50;3.72;;;2.80;94.80;;;;;;4952755;29;20381;-66
2021/04/08 02:12:53;;;;;;;13.50;4.68;;;2.80;94.70;;;;;;4938278;29;20031;-66
2021/04/08 02:15:21;;;;;;;12.02;2.78;;;2.90;94.60;;;;;;4953233;29;20039;-66
2021/04/08 02:17:50;;;;;;;9.70;3.05;;;2.90;94.40;;;;;;4937670;29;20043;-65
2021/04/08 02:20:18;;;;;;;7.75;2.47;;;3.00;94.30;;;;;;4938598;29;20028;-66
2021/04/08 02:22:51;;;;;;;7.78;2.38;;;3.10;94.10;;;;;;4938379;29;20028;-65
2021/04/08 02:25:17;;;;;;;9.15;2.42;;;3.10;93.90;;;;;;4937958;29;20020;-65
2021/04/08 02:27:44;;;;;;;6.45;3.15;;;3.20;93.80;;;;;;4938467;29;20031;-65
2021/04/08 02:30:14;;;;;;;7.45;2.00;;;3.20;93.60;;;;;;4938556;29;20020;-65
2021/04/08 02:32:40;;;;;;;8.95;2.30;;;3.30;93.50;;;;;;4937414;29;20412;-65
2021/04/08 02:35:09;;;;;;;5.70;1.98;;;3.30;93.30;;;;;;4937852;29;20473;-66
2021/04/08 02:37:35;;;;;;;6.53;2.28;;;3.40;93.20;;;;;;4938279;29;20020;-67
2021/04/08 02:40:03;;;;;;;5.88;1.80;;;3.40;93.10;;;;;;4952062;29;20098;-65
2021/04/08 02:42:28;;;;;;;11.35;2.65;;;3.40;92.90;;;;;;4936232;29;20032;-65
2021/04/08 02:44:54;;;;;;;8.52;4.20;;;3.40;92.80;;;;;;4967457;28;20023;-65
2021/04/08 02:47:20;;;;;;;5.80;1.95;;;3.40;92.70;;;;;;4936098;29;20070;-65
2021/04/08 02:49:46;;;;;;;8.05;2.25;;;3.50;92.90;;;;;;4936238;29;20028;-65
2021/04/08 02:52:16;;;;;;;8.60;2.35;;;3.50;92.60;;;;;;4936202;29;20040;-65
2021/04/08 02:54:48;;;;;;;3.80;1.60;;;3.50;92.50;;;;;;4934603;29;20048;-65
2021/04/08 02:57:47;;;;;;;10.07;1.80;;;3.60;92.40;;;;;;4936641;29;20062;-65
2021/04/08 03:00:14;;;;;;;8.43;1.70;;;3.60;92.20;;;;;;4937326;29;20027;-65
2021/04/08 03:02:43;;;;;;;6.93;1.50;;;3.60;92.20;;;;;;4968638;28;20023;-66
2021/04/08 03:05:10;;;;;;;7.13;1.90;;;3.60;92.10;;;;;;4937602;29;20028;-66
2021/04/08 03:07:48;;;;;;;9.45;1.90;;;3.60;92.10;;;;;;4937377;29;20115;-66
2021/04/08 03:10:15;;;;;;;7.50;1.85;;;3.60;92.20;;;;;;4952260;29;20030;-66
2021/04/08 03:12:53;;;;;;;7.20;2.15;;;3.60;92.20;;;;;;4936940;29;20028;-65
2021/04/08 03:15:24;;;;;;;5.03;1.50;;;3.60;92.20;;;;;;4949604;29;20032;-66
2021/04/08 03:17:52;;;;;;;6.30;1.65;;;3.70;92.30;;;;;;4937012;29;20404;-66
2021/04/08 03:20:18;;;;;;;7.72;2.10;;;3.70;92.30;;;;;;4937176;29;20507;-65
2021/04/08 03:22:45;;;;;;;6.80;1.77;;;3.70;92.30;;;;;;4937239;29;20051;-64
2021/04/08 03:25:12;;;;;;;6.75;1.52;;;3.70;92.30;;;;;;4937315;29;20016;-64
2021/04/08 03:27:40;;;;;;;7.38;1.73;;;3.80;92.30;;;;;;4936732;29;20036;-64
2021/04/08 03:30:10;;;;;;;6.20;1.70;;;3.80;92.30;;;;;;4936883;29;20028;-65
2021/04/08 03:32:36;;;;;;;5.78;1.95;;;3.80;92.40;;;;;;4937282;28;20063;-66
2021/04/08 03:35:03;;;;;;;5.45;1.98;;;3.80;92.30;;;;;;4936052;29;20480;-66
2021/04/08 03:37:29;;;;;;;5.95;2.10;;;3.80;92.40;;;;;;4937221;29;20031;-66
2021/04/08 03:39:54;;;;;;;7.97;2.70;;;3.80;92.30;;;;;;4936793;29;20038;-66
2021/04/08 03:42:22;;;;;;;11.88;2.60;;;3.90;92.50;;;;;;4936445;29;20023;-65
2021/04/08 03:44:48;;;;;;;7.50;2.72;;;3.90;92.50;;;;;;4951636;29;20043;-66
2021/04/08 03:47:15;;;;;;;9.77;3.28;;;3.90;92.50;;;;;;4936859;29;20051;-66
2021/04/08 03:49:42;;;;;;;5.43;2.22;;;4.00;92.60;;;;;;4950932;29;20020;-66
2021/04/08 03:52:10;;;;;;;6.22;2.03;;;4.00;92.50;;;;;;4936471;29;20044;-67
2021/04/08 03:54:37;;;;;;;8.32;2.42;;;4.00;92.70;;;;;;4936951;29;20019;-66
2021/04/08 03:57:06;;;;;;;4.75;2.33;;;3.90;92.40;;;;;;4936257;29;20384;-66
2021/04/08 03:59:32;;;;;;;5.03;2.25;;;4.00;92.40;;;;;;4951482;29;20023;-66
2021/04/08 04:01:58;;;;;;;9.32;2.42;;;4.00;92.30;;;;;;4936427;29;20024;-66
2021/04/08 04:04:25;;;;;;;8.85;2.40;;;3.90;92.30;;;;;;4936107;29;20071;-65
2021/04/08 04:06:53;;;;;;;8.68;2.55;;;4.00;92.30;;;;;;4936197;29;20028;-65
2021/04/08 04:09:19;;;;;;;8.60;2.67;;;4.00;92.30;;;;;;4951509;29;20032;-65
2021/04/08 04:11:47;;;;;;;6.03;2.38;;;4.00;92.40;;;;;;4935477;29;20035;-65
2021/04/08 04:14:16;;;;;;;9.27;2.92;;;4.10;92.40;;;;;;4936621;29;20028;-65
2021/04/08 04:16:45;;;;;;;5.95;3.00;;;4.10;92.30;;;;;;4935713;29;20028;-66
2021/04/08 04:19:11;;;;;;;10.65;3.00;;;4.00;92.30;;;;;;4936499;29;20032;-66
2021/04/08 04:21:37;;;;;;;9.48;3.28;;;4.10;92.30;;;;;;4936438;29;20020;-66
2021/04/08 04:24:04;;;;;;;9.32;2.60;;;4.00;92.20;;;;;;4935286;29;20031;-65
2021/04/08 04:26:30;;;;;;;5.32;2.33;;;4.00;92.20;;;;;;4936118;29;20023;-65
2021/04/08 04:28:55;;;;;;;7.55;2.15;;;4.00;92.20;;;;;;4935006;29;20075;-66
2021/04/08 04:31:21;;;;;;;7.97;1.98;;;4.00;92.20;;;;;;4935371;29;20433;-66
2021/04/08 04:33:47;;;;;;;4.88;2.33;;;4.00;92.10;;;;;;4935344;29;20027;-65
2021/04/08 04:36:12;;;;;;;7.88;1.85;;;4.00;92.10;;;;;;4935720;29;20035;-66
2021/04/08 04:38:38;;;;;;;6.07;1.80;;;4.00;92.10;;;;;;4935488;29;20028;-67
2021/04/08 04:41:04;;;;;;;6.60;1.77;;;3.90;92.10;;;;;;4934319;29;20436;-66
2021/04/08 04:43:30;;;;;;;6.13;2.10;;;3.90;92.10;;;;;;4935993;29;20376;-66
2021/04/08 04:45:55;;;;;;;6.15;2.38;;;3.90;92.10;;;;;;4934557;29;20051;-66
2021/04/08 04:48:21;;;;;;;12.20;2.65;;;3.90;92.10;;;;;;4936014;28;20070;-66
2021/04/08 04:50:47;;;;;;;6.53;2.03;;;3.90;92.10;;;;;;4935335;29;20082;-66
2021/04/08 04:53:12;;;;;;;6.18;2.17;;;3.90;92.10;;;;;;4935165;29;20031;-65
2021/04/08 04:55:38;;;;;;;7.85;2.85;;;4.00;92.10;;;;;;4935741;29;20035;-66
2021/04/08 04:58:03;;;;;;;7.13;2.40;;;3.90;92.20;;;;;;4935540;29;20031;-66
2021/04/08 05:00:29;;;;;;;4.68;2.13;;;4.00;92.10;;;;;;4935053;29;20376;-66
2021/04/08 05:02:54;;;;;;;6.75;2.10;;;4.00;92.10;;;;;;4935409;29;20027;-65
2021/04/08 05:05:20;;;;;;;7.80;2.20;;;3.90;92.10;;;;;;4935614;29;20106;-66
2021/04/08 05:07:45;;;;;;;5.03;2.35;;;3.90;92.10;;;;;;4934023;29;20047;-66
2021/04/08 05:10:11;;;;;;;6.50;2.28;;;4.00;92.20;;;;;;4965530;28;20086;-66
2021/04/08 05:12:38;;;;;;;9.85;3.15;;;4.00;92.10;;;;;;4935296;29;20086;-66
2021/04/08 05:15:04;;;;;;;9.05;2.58;;;4.00;92.20;;;;;;4934186;29;20514;-66
2021/04/08 05:17:30;;;;;;;3.30;1.77;;;4.10;92.20;;;;;;4935491;29;20035;-66
2021/04/08 05:19:57;;;;;;;6.57;2.30;;;4.20;92.10;;;;;;4934427;29;20027;-66
2021/04/08 05:22:23;;;;;;;4.18;2.08;;;4.20;92.10;;;;;;4965854;28;20027;-66
2021/04/08 05:24:48;;;;;;;7.30;2.20;;;4.30;92.00;;;;;;4927119;29;20437;-67
2021/04/08 05:27:14;;;;;;;4.90;2.20;;;4.30;91.90;;;;;;4931959;29;20475;-67
2021/04/08 05:29:39;;;;;;;8.68;2.65;;;4.30;91.90;;;;;;4934397;29;20020;-66
2021/04/08 05:32:05;;;;;;;8.18;2.40;;;4.40;91.90;;;;;;4944243;29;20051;-68
2021/04/08 05:34:31;;;;;;;9.23;3.60;;;4.40;91.90;;;;;;4953005;28;20050;-68
2021/04/08 05:36:56;;;;;;;10.85;4.05;;;4.40;91.90;;;;;;4953115;28;20365;-67
2021/04/08 05:39:22;;;;;;;8.70;2.83;;;4.50;91.90;;;;;;4939989;28;20495;-66
2021/04/08 05:41:48;;;;;;;6.13;2.75;;;4.60;91.90;;;;;;4936087;29;20034;-65
2021/04/08 05:44:13;;;;;;;9.48;2.72;;;4.60;91.80;;;;;;4948731;29;20456;-68
2021/04/08 05:46:39;;;;;;;10.85;3.28;;;4.70;91.80;;;;;;4938494;28;20048;-69
2021/04/08 05:49:04;;;;;;;6.50;3.65;;;4.70;91.60;;;;;;4937748;29;20107;-68
2021/04/08 05:51:30;;;;;;;8.57;3.10;;;4.70;91.60;;;;;;4937983;29;20064;-66
2021/04/08 05:53:55;;;;;;;11.55;3.65;;;4.90;91.70;;;;;;4937895;29;20391;-66
2021/04/08 05:56:21;;;;;;;9.00;3.50;;;4.90;91.50;;;;;;4936983;29;20385;-69
2021/04/08 05:58:46;;;;;;;8.93;4.00;;;5.00;91.40;;;;;;4952489;29;20163;-68
2021/04/08 06:01:12;;;;;;;10.55;3.95;;;5.10;91.20;;;;;;4969018;28;20023;-69
2021/04/08 06:03:38;;;;;;;8.90;4.13;;;5.20;91.10;;;;;;4968280;28;20027;-68
2021/04/08 06:06:04;;;;;;;11.57;4.50;;;5.20;90.90;;;;;;4952352;29;20440;-68
2021/04/08 06:08:29;;;;;;;9.25;4.53;;;5.30;90.90;;;;;;4968993;28;20030;-70
2021/04/08 06:10:55;;;;;;;7.85;4.22;;;5.40;90.70;;;;;;4936649;29;20039;-67
2021/04/08 06:13:21;;;;;;;10.20;5.00;;;5.50;90.60;;;;;;4937878;29;20027;-66
2021/04/08 06:15:46;;;;;;;10.05;5.28;;;5.60;90.60;;;;;;4936758;29;20380;-68
2021/04/08 06:18:12;;;;;;;10.35;4.90;;;5.70;90.40;;;;;;4937559;29;20453;-68
2021/04/08 06:20:37;;;;;;;9.43;4.43;;;5.80;90.10;;;;;;4946848;29;20483;-68
2021/04/08 06:23:04;;;;;;;8.30;4.63;;;5.90;90.00;;;;;;4938565;28;20534;-68
2021/04/08 06:25:31;;;;;;;10.05;4.03;;;6.00;89.80;;;;;;4937434;29;20032;-67
2021/04/08 06:27:56;;;;;;;11.25;4.40;;;6.00;89.50;;;;;;4938061;29;20051;-67
2021/04/08 06:30:22;;;;;;;8.85;4.72;;;6.00;89.20;;;;;;4936144;29;20614;-67
2021/04/08 06:32:51;;;;;;;13.57;4.40;;;6.20;89.10;;;;;;4937794;28;20035;-67
2021/04/08 06:35:17;;;;;;;12.70;4.25;;;6.20;88.80;;;;;;4937728;29;20051;-68
2021/04/08 06:37:44;;;;;;;10.90;4.75;;;6.20;88.50;;;;;;4937775;28;20092;-65
2021/04/08 06:40:10;;;;;;;8.05;3.85;;;6.20;88.30;;;;;;4937904;29;20131;-66
2021/04/08 16:45:57;;;;;;;12.65;11.35;;;11.20;49.20;;;;;;5569316;23;20106;-69
2021/04/08 16:48:24;;;;;;;14.15;12.07;;;11.00;49.90;;;;;;4981089;28;20439;-69
2021/04/08 16:50:49;;;;;;;14.30;12.75;;;11.00;50.60;;;;;;4979902;28;20046;-72
2021/04/08 16:53:15;;;;;;;13.95;12.50;;;10.90;51.00;;;;;;4988401;28;20079;-67
2021/04/08 16:55:41;;;;;;;15.40;12.43;;;10.80;51.00;;;;;;4987375;28;20113;-68
2021/04/08 16:58:06;;;;;;;13.88;12.48;;;10.70;51.40;;;;;;4989339;28;20449;-69
2021/04/08 17:00:33;;;;;;;14.98;12.52;;;10.60;51.00;;;;;;4988108;28;20470;-68
2021/04/08 17:02:59;;;;;;;14.35;12.93;;;10.60;52.10;;;;;;4987760;28;20433;-67
2021/04/08 17:05:25;;;;;;;15.48;12.60;;;10.60;52.80;;;;;;4989186;28;20105;-67
2021/04/08 17:07:51;;;;;;;14.50;12.65;;;10.60;52.70;;;;;;4988194;28;20121;-65
2021/04/08 17:10:17;;;;;;;15.10;12.57;;;10.60;53.10;;;;;;4989128;28;20061;-65
2021/04/08 17:12:43;;;;;;;15.18;12.85;;;10.70;52.60;;;;;;4987693;28;20038;-66
2021/04/08 17:15:10;;;;;;;14.73;12.32;;;10.80;52.40;;;;;;4989395;28;20145;-67
2021/04/08 17:17:37;;;;;;;12.45;11.25;;;11.10;52.10;;;;;;4988049;28;20041;-67
2021/04/08 17:20:06;;;;;;;13.18;11.82;;;11.30;51.30;;;;;;4988839;28;20050;-70
2021/04/08 17:22:32;;;;;;;12.45;10.75;;;11.40;51.50;;;;;;4988753;28;20030;-64
2021/04/08 17:24:57;;;;;;;13.27;11.93;;;11.40;51.40;;;;;;4987467;28;20065;-69
2021/04/08 17:27:23;;;;;;;12.40;11.18;;;11.20;51.10;;;;;;4988935;28;20049;-64
2021/04/08 17:29:49;;;;;;;16.77;11.63;;;11.00;51.30;;;;;;4987470;28;20398;-65
2021/04/08 17:32:15;;;;;;;12.45;11.25;;;10.80;51.40;;;;;;4989360;28;20038;-69
2021/04/08 17:34:41;;;;;;;12.27;11.05;;;10.70;52.40;;;;;;4987289;28;20050;-67
2021/04/08 17:37:06;;;;;;;14.88;12.55;;;10.60;53.00;;;;;;4987890;28;20030;-64
2021/04/08 17:39:32;;;;;;;13.38;11.25;;;10.60;53.30;;;;;;4988013;28;20752;-64
2021/04/08 17:41:57;;;;;;;14.23;11.10;;;10.60;54.20;;;;;;4988418;28;20352;-68
2021/04/08 17:44:23;;;;;;;12.98;10.55;;;10.50;54.50;;;;;;4989121;28;20026;-67
2021/04/08 17:46:49;;;;;;;12.52;10.48;;;10.40;54.30;;;;;;4988282;28;20490;-66
2021/04/08 17:49:14;;;;;;;13.15;11.85;;;10.30;54.20;;;;;;4987879;28;20101;-69
2021/04/08 17:51:40;;;;;;;12.15;10.73;;;10.10;54.30;;;;;;4989050;28;20030;-67
2021/04/08 17:54:06;;;;;;;15.45;10.82;;;10.10;54.10;;;;;;4989074;28;20027;-69
2021/04/08 17:56:31;;;;;;;15.27;11.23;;;10.00;54.60;;;;;;4988298;28;20507;-68
2021/04/08 17:58:57;;;;;;;15.25;11.20;;;9.90;55.00;;;;;;4988757;28;20125;-67
2021/04/08 18:01:23;;;;;;;13.43;11.40;;;9.80;55.50;;;;;;4988771;28;20026;-67
2021/04/08 18:03:49;;;;;;;14.40;10.90;;;9.80;56.00;;;;;;4987846;28;20397;-69
2021/04/08 18:06:15;;;;;;;13.82;12.43;;;9.60;55.20;;;;;;4988934;28;20105;-65
2021/04/08 18:08:40;;;;;;;14.70;12.07;;;9.60;55.80;;;;;;4988774;28;20030;-68
2021/04/08 18:11:06;;;;;;;17.10;11.07;;;9.50;55.70;;;;;;4987894;28;20109;-68
2021/04/08 18:13:33;;;;;;;14.05;11.57;;;9.30;56.10;;;;;;4988496;28;20113;-67
2021/04/08 18:15:59;;;;;;;13.35;11.65;;;9.30;56.40;;;;;;4988699;28;20084;-70
2021/04/08 18:18:25;;;;;;;14.48;11.45;;;9.20;57.10;;;;;;4988360;28;20547;-71
2021/04/08 18:20:51;;;;;;;12.27;10.55;;;9.10;57.70;;;;;;4987839;28;20034;-65
2021/04/08 18:23:17;;;;;;;13.40;10.82;;;9.00;57.40;;;;;;4989156;28;20109;-68
2021/04/08 18:25:44;;;;;;;11.95;10.75;;;8.90;57.40;;;;;;4986777;28;20418;-67
2021/04/08 18:28:10;;;;;;;14.30;11.55;;;8.80;57.60;;;;;;4988605;28;20041;-66
2021/04/08 18:30:49;;;;;;;12.02;10.80;;;8.80;57.80;;;;;;4988499;28;20510;-67
2021/04/08 18:33:19;;;;;;;13.98;11.07;;;8.70;59.10;;;;;;4988176;28;20047;-70
2021/04/08 18:35:46;;;;;;;14.05;12.07;;;8.70;60.10;;;;;;4991166;28;20026;-68
2021/04/08 18:38:12;;;;;;;15.90;12.50;;;8.60;60.80;;;;;;4991896;28;20014;-69
2021/04/08 18:40:37;;;;;;;18.50;13.82;;;8.60;61.10;;;;;;4990715;28;20382;-71
2021/04/08 18:43:03;;;;;;;14.40;12.18;;;8.50;61.70;;;;;;4991312;28;20619;-73
2021/04/08 18:45:29;;;;;;;14.40;12.73;;;8.50;61.70;;;;;;4991206;28;20106;-70
2021/04/08 18:47:54;;;;;;;19.83;12.82;;;8.40;61.40;;;;;;4993156;28;20053;-71
2021/04/08 18:50:22;;;;;;;15.05;13.45;;;8.40;61.50;;;;;;4995763;28;20026;-68
2021/04/08 18:53:00;;;;;;;14.82;12.98;;;8.40;62.60;;;;;;4994621;28;20077;-67
2021/04/08 18:55:27;;;;;;;17.85;13.10;;;8.40;63.10;;;;;;4995863;28;20031;-70
2021/04/08 18:57:53;;;;;;;16.98;12.32;;;8.30;62.30;;;;;;4995164;28;20072;-69
2021/04/08 19:00:19;;;;;;;14.50;12.73;;;8.30;62.00;;;;;;4995359;28;20061;-71
2021/04/08 19:02:47;;;;;;;15.75;11.85;;;8.20;62.00;;;;;;4995301;28;20106;-69
2021/04/08 19:05:14;;;;;;;15.45;11.07;;;8.20;62.10;;;;;;4995644;28;20025;-71
2021/04/08 19:07:39;;;;;;;14.75;11.57;;;8.20;61.90;;;;;;4993570;28;20019;-69
2021/04/08 19:10:06;;;;;;;12.85;11.52;;;8.10;61.80;;;;;;4995255;28;20041;-69
2021/04/08 19:12:32;;;;;;;14.65;13.15;;;8.10;62.40;;;;;;4995161;28;20132;-70
2021/04/08 19:14:58;;;;;;;14.52;11.05;;;8.10;62.30;;;;;;4993276;28;20037;-71
2021/04/08 19:17:24;;;;;;;12.70;11.38;;;8.10;62.40;;;;;;4995471;28;20031;-67
2021/04/08 19:19:49;;;;;;;13.43;11.50;;;8.10;62.90;;;;;;4994939;28;20046;-67
2021/04/08 19:22:15;;;;;;;14.15;11.85;;;8.10;63.40;;;;;;4993085;28;20026;-66
2021/04/08 19:24:40;;;;;;;15.80;11.10;;;8.00;63.70;;;;;;4993828;28;20450;-71
2021/04/08 19:27:06;;;;;;;14.20;12.35;;;8.00;63.60;;;;;;4994309;28;20034;-70
2021/04/08 19:29:32;;;;;;;15.35;12.32;;;7.90;63.60;;;;;;4990981;28;20018;-69
2021/04/08 19:31:57;;;;;;;17.40;12.10;;;7.90;64.60;;;;;;4991111;28;20461;-69
2021/04/08 19:34:23;;;;;;;14.48;11.45;;;7.80;64.50;;;;;;4991549;28;20526;-67
2021/04/08 19:36:48;;;;;;;15.57;12.32;;;7.70;64.30;;;;;;4990627;28;20121;-65
2021/04/08 19:39:14;;;;;;;15.65;12.23;;;7.70;64.60;;;;;;4991705;28;20041;-67
2021/04/08 19:41:40;;;;;;;15.63;12.20;;;7.60;65.40;;;;;;4990768;28;20026;-68
2021/04/08 19:44:06;;;;;;;14.95;12.35;;;7.60;65.20;;;;;;4990109;28;20110;-66
2021/04/08 19:46:31;;;;;;;14.55;11.38;;;7.60;64.70;;;;;;4990921;28;20133;-67
2021/04/08 19:48:57;;;;;;;12.00;10.80;;;7.50;64.60;;;;;;4990326;28;20026;-67
2021/04/08 19:51:23;;;;;;;14.55;11.60;;;7.50;64.10;;;;;;4990339;28;20085;-69
2021/04/08 19:53:49;;;;;;;14.60;11.77;;;7.50;64.10;;;;;;4987661;28;20104;-68
2021/04/08 19:56:15;;;;;;;15.10;11.70;;;7.50;64.00;;;;;;4989032;28;20478;-67
2021/04/08 19:58:40;;;;;;;15.82;11.98;;;7.50;64.10;;;;;;4989537;28;20360;-66
2021/04/08 20:01:07;;;;;;;15.95;12.23;;;7.50;64.60;;;;;;4990857;28;20049;-68
2021/04/08 20:03:33;;;;;;;16.17;12.40;;;7.40;65.00;;;;;;4989255;28;20146;-69
2021/04/08 20:05:59;;;;;;;16.15;11.65;;;7.40;65.20;;;;;;4988920;28;20031;-67
2021/04/08 20:08:24;;;;;;;15.43;12.15;;;7.40;65.50;;;;;;4989506;28;20490;-70
2021/04/08 20:10:50;;;;;;;14.77;11.95;;;7.30;65.70;;;;;;4988527;28;20607;-68
2021/04/08 20:13:15;;;;;;;14.73;11.15;;;7.30;66.00;;;;;;4990673;28;20064;-67
2021/04/08 20:15:41;;;;;;;22.25;14.40;;;7.20;65.90;;;;;;4990558;28;20089;-68
2021/04/08 20:18:07;;;;;;;16.88;12.48;;;7.20;66.20;;;;;;4988197;28;20037;-66
2021/04/08 20:20:33;;;;;;;13.27;10.82;;;7.20;66.70;;;;;;4988991;28;20058;-68
2021/04/08 20:22:58;;;;;;;14.68;10.68;;;7.20;66.90;;;;;;4988709;28;20032;-71
2021/04/08 20:25:24;;;;;;;14.93;11.93;;;7.20;66.90;;;;;;4990059;28;20034;-68
2021/04/08 20:27:50;;;;;;;14.57;11.63;;;7.20;66.90;;;;;;4988640;28;20704;-69
2021/04/08 20:30:16;;;;;;;15.05;10.30;;;7.30;66.90;;;;;;4990844;28;20066;-66
2021/04/08 20:32:42;;;;;;;13.48;9.60;;;7.20;66.80;;;;;;4988875;28;20439;-71
2021/04/08 20:35:08;;;;;;;11.73;8.45;;;7.30;67.10;;;;;;4990282;28;20092;-70
2021/04/08 20:37:34;;;;;;;12.75;8.40;;;7.30;67.10;;;;;;4988981;28;20030;-70
2021/04/08 20:39:59;;;;;;;11.05;8.50;;;7.30;67.40;;;;;;4989619;28;20037;-68
2021/04/08 20:42:25;;;;;;;13.05;8.73;;;7.20;67.30;;;;;;4990496;28;20141;-68
2021/04/08 20:44:51;;;;;;;10.93;7.78;;;7.30;68.00;;;;;;4989678;28;20037;-68
2021/04/08 20:47:17;;;;;;;12.07;8.77;;;7.20;67.90;;;;;;4989319;28;20042;-70
2021/04/08 20:49:43;;;;;;;14.70;8.98;;;7.20;67.60;;;;;;4990076;28;20034;-68
2021/04/08 20:52:08;;;;;;;18.88;8.43;;;7.20;67.70;;;;;;4987591;28;20130;-69
2021/04/08 20:54:34;;;;;;;13.10;7.95;;;7.20;67.90;;;;;;4990173;28;20113;-66
2021/04/08 20:57:01;;;;;;;9.75;7.57;;;7.20;67.90;;;;;;4989173;28;20034;-70
2021/04/08 20:59:27;;;;;;;12.05;8.45;;;7.20;67.70;;;;;;4987968;28;20026;-70
2021/04/08 21:01:52;;;;;;;8.63;7.10;;;7.30;67.50;;;;;;4989945;28;20033;-71
2021/04/08 21:04:18;;;;;;;12.40;7.32;;;7.30;67.40;;;;;;4990070;28;20497;-66
2021/04/08 21:06:43;;;;;;;12.23;8.10;;;7.40;67.20;;;;;;4988735;28;20619;-66
2021/04/08 21:09:09;;;;;;;12.93;7.95;;;7.40;67.00;;;;;;4989321;28;20045;-69
2021/04/08 21:11:35;;;;;;;11.75;7.53;;;7.40;67.10;;;;;;4989494;28;20490;-68
2021/04/08 21:14:00;;;;;;;9.57;7.68;;;7.40;67.00;;;;;;4988591;28;20042;-68
2021/04/08 21:16:26;;;;;;;11.85;7.93;;;7.40;67.00;;;;;;4989673;28;20030;-71
2021/04/08 21:18:52;;;;;;;12.45;7.68;;;7.40;67.50;;;;;;4988976;28;20350;-70
2021/04/08 21:21:17;;;;;;;15.10;7.97;;;7.40;66.70;;;;;;4987705;28;20036;-67
2021/04/08 21:23:43;;;;;;;10.95;7.57;;;7.30;66.60;;;;;;4989255;28;20037;-66
2021/04/08 21:26:09;;;;;;;12.48;7.97;;;7.20;66.90;;;;;;4991075;28;20564;-67
2021/04/08 21:28:35;;;;;;;12.68;8.20;;;7.20;66.90;;;;;;4990282;28;20548;-68
2021/04/08 21:31:00;;;;;;;10.13;7.65;;;7.10;67.10;;;;;;4992136;28;20019;-68
2021/04/08 21:33:26;;;;;;;13.20;7.70;;;7.10;67.40;;;;;;4993110;28;20367;-70
2021/04/08 21:35:52;;;;;;;9.75;7.53;;;7.00;67.70;;;;;;4992043;28;20033;-71
2021/04/08 21:38:18;;;;;;;12.90;7.97;;;7.00;67.60;;;;;;4992406;28;20057;-68
2021/04/08 21:40:44;;;;;;;11.80;8.57;;;6.90;67.60;;;;;;4992357;28;20030;-66
2021/04/08 21:43:10;;;;;;;10.55;7.18;;;6.90;67.80;;;;;;4990535;28;20034;-68
2021/04/08 21:45:36;;;;;;;13.82;8.00;;;6.90;68.10;;;;;;4991693;28;20045;-69
2021/04/08 21:48:02;;;;;;;10.30;7.53;;;6.90;68.20;;;;;;4991824;28;20046;-70
2021/04/08 21:50:27;;;;;;;12.77;8.93;;;6.90;68.10;;;;;;4992125;28;20381;-64
2021/04/08 21:52:53;;;;;;;12.40;7.80;;;6.90;68.10;;;;;;4992512;28;20121;-71
2021/04/08 21:55:20;;;;;;;12.70;8.68;;;6.90;68.30;;;;;;4992327;28;20430;-68
2021/04/08 21:57:46;;;;;;;13.88;8.48;;;6.90;68.50;;;;;;4992473;28;20513;-70
2021/04/08 22:00:24;;;;;;;16.30;8.30;;;6.80;68.30;;;;;;4992885;28;20018;-71
2021/04/08 22:02:50;;;;;;;14.15;8.68;;;6.80;68.30;;;;;;4991610;28;20030;-69
2021/04/08 22:05:16;;;;;;;15.50;8.65;;;6.70;68.30;;;;;;4993227;28;20022;-70
2021/04/08 22:07:43;;;;;;;13.30;8.73;;;6.70;68.60;;;;;;4992707;28;20049;-67
2021/04/08 22:10:10;;;;;;;11.85;8.52;;;6.70;68.90;;;;;;4992083;28;20026;-70
2021/04/08 22:12:36;;;;;;;11.15;8.55;;;6.70;68.80;;;;;;4992567;28;20030;-66
2021/04/08 22:15:02;;;;;;;10.90;8.10;;;6.60;68.80;;;;;;4991822;28;20026;-69
2021/04/08 22:17:28;;;;;;;11.38;8.50;;;6.60;69.20;;;;;;4992034;28;20390;-70
2021/04/08 22:19:53;;;;;;;12.63;8.48;;;6.60;69.50;;;;;;4991874;28;20026;-70
2021/04/08 22:22:19;;;;;;;14.60;9.40;;;6.60;69.70;;;;;;4994981;28;20026;-70
2021/04/08 22:24:45;;;;;;;13.40;8.90;;;6.50;70.20;;;;;;4995217;28;20097;-67
2021/04/08 22:27:11;;;;;;;13.50;8.90;;;6.50;70.00;;;;;;4996031;28;20026;-69
2021/04/08 22:29:37;;;;;;;13.10;8.80;;;6.50;70.40;;;;;;4996262;28;20022;-70
2021/04/08 22:32:05;;;;;;;14.13;9.02;;;6.50;70.20;;;;;;4995233;28;20221;-71
2021/04/08 22:34:30;;;;;;;13.30;8.57;;;6.50;70.20;;;;;;4996170;28;20028;-66
2021/04/08 22:36:57;;;;;;;14.70;8.82;;;6.50;70.10;;;;;;4995655;28;20027;-69
2021/04/08 22:39:23;;;;;;;14.70;8.45;;;6.50;70.80;;;;;;4995410;28;20026;-71
2021/04/08 22:41:49;;;;;;;19.00;9.07;;;6.50;69.90;;;;;;4995700;28;20030;-69
2021/04/08 22:44:16;;;;;;;17.23;9.57;;;6.50;69.60;;;;;;4996048;28;20018;-70
2021/04/08 22:46:42;;;;;;;15.63;9.00;;;6.50;69.60;;;;;;4993803;28;20494;-69